sensor_id;sensor_type;location;lat;lon;timestamp;P1;durP1;ratioP1;P2;durP2;ratioP2
64885;SDS011;51514;52.206;5.114;2023-08-12T00:00:26;2.65;;;1.67;;
64885;SDS011;51514;52.206;5.114;2023-08-12T00:02:51;4.43;;;1.90;;
64885;SDS011;51514;52.206;5.114;2023-08-12T00:05:17;2.10;;;1.55;;
64885;SDS011;51514;52.206;5.114;2023-08-12T00:07:42;2.95;;;1.67;;
64885;SDS011;51514;52.206;5.114;2023-08-12T00:10:08;3.35;;;1.90;;
64885;SDS011;51514;52.206;5.114;2023-08-12T00:12:35;1.95;;;1.73;;
64885;SDS011;51514;52.206;5.114;2023-08-12T00:15:01;4.28;;;2.20;;
64885;SDS011;51514;52.206;5.114;2023-08-12T00:17:28;3.42;;;1.70;;
64885;SDS011;51514;52.206;5.114;2023-08-12T00:19:53;3.88;;;1.95;;
64885;SDS011;51514;52.206;5.114;2023-08-12T00:22:18;3.45;;;2.33;;
64885;SDS011;51514;52.206;5.114;2023-08-12T00:24:44;3.13;;;1.83;;
64885;SDS011;51514;52.206;5.114;2023-08-12T00:27:09;2.53;;;2.03;;
64885;SDS011;51514;52.206;5.114;2023-08-12T00:29:35;2.47;;;1.70;;
64885;SDS011;51514;52.206;5.114;2023-08-12T00:32:01;2.50;;;1.73;;
64885;SDS011;51514;52.206;5.114;2023-08-12T00:34:26;1.92;;;1.38;;
64885;SDS011;51514;52.206;5.114;2023-08-12T00:36:52;2.90;;;1.77;;
64885;SDS011;51514;52.206;5.114;2023-08-12T00:39:17;2.30;;;1.70;;
64885;SDS011;51514;52.206;5.114;2023-08-12T00:41:43;2.70;;;1.80;;
64885;SDS011;51514;52.206;5.114;2023-08-12T00:44:08;2.53;;;1.83;;
64885;SDS011;51514;52.206;5.114;2023-08-12T00:46:33;2.58;;;1.90;;
64885;SDS011;51514;52.206;5.114;2023-08-12T00:48:59;2.33;;;1.60;;
64885;SDS011;51514;52.206;5.114;2023-08-12T00:51:25;3.05;;;1.88;;
64885;SDS011;51514;52.206;5.114;2023-08-12T00:53:51;3.33;;;1.73;;
64885;SDS011;51514;52.206;5.114;2023-08-12T00:56:17;2.58;;;1.80;;
64885;SDS011;51514;52.206;5.114;2023-08-12T00:58:44;3.55;;;2.10;;
64885;SDS011;51514;52.206;5.114;2023-08-12T01:01:10;1.88;;;1.67;;
64885;SDS011;51514;52.206;5.114;2023-08-12T01:03:37;2.30;;;1.95;;
64885;SDS011;51514;52.206;5.114;2023-08-12T01:06:02;2.67;;;2.00;;
64885;SDS011;51514;52.206;5.114;2023-08-12T01:08:28;2.53;;;1.90;;
64885;SDS011;51514;52.206;5.114;2023-08-12T01:11:02;2.53;;;2.25;;
64885;SDS011;51514;52.206;5.114;2023-08-12T01:16:19;2.08;;;1.77;;
64885;SDS011;51514;52.206;5.114;2023-08-12T01:18:47;2.08;;;1.70;;
64885;SDS011;51514;52.206;5.114;2023-08-12T01:21:15;2.88;;;1.50;;
64885;SDS011;51514;52.206;5.114;2023-08-12T01:23:42;2.70;;;1.80;;
64885;SDS011;51514;52.206;5.114;2023-08-12T01:26:08;2.75;;;1.92;;
64885;SDS011;51514;52.206;5.114;2023-08-12T01:28:33;4.18;;;1.95;;
64885;SDS011;51514;52.206;5.114;2023-08-12T01:31:04;1.60;;;1.48;;
64885;SDS011;51514;52.206;5.114;2023-08-12T01:33:42;2.83;;;2.00;;
64885;SDS011;51514;52.206;5.114;2023-08-12T01:36:17;3.17;;;2.10;;
64885;SDS011;51514;52.206;5.114;2023-08-12T01:38:45;2.45;;;1.80;;
64885;SDS011;51514;52.206;5.114;2023-08-12T01:41:12;3.33;;;1.80;;
64885;SDS011;51514;52.206;5.114;2023-08-12T01:43:39;3.33;;;2.30;;
64885;SDS011;51514;52.206;5.114;2023-08-12T01:46:05;4.05;;;1.90;;
64885;SDS011;51514;52.206;5.114;2023-08-12T01:48:31;3.08;;;1.65;;
64885;SDS011;51514;52.206;5.114;2023-08-12T01:50:56;3.30;;;1.90;;
64885;SDS011;51514;52.206;5.114;2023-08-12T01:53:22;2.63;;;1.92;;
64885;SDS011;51514;52.206;5.114;2023-08-12T01:55:48;2.20;;;1.50;;
64885;SDS011;51514;52.206;5.114;2023-08-12T01:58:15;2.60;;;1.75;;
64885;SDS011;51514;52.206;5.114;2023-08-12T02:00:41;3.20;;;1.63;;
64885;SDS011;51514;52.206;5.114;2023-08-12T02:03:06;2.00;;;1.52;;
64885;SDS011;51514;52.206;5.114;2023-08-12T02:05:32;2.72;;;1.83;;
64885;SDS011;51514;52.206;5.114;2023-08-12T02:07:57;2.78;;;1.88;;
64885;SDS011;51514;52.206;5.114;2023-08-12T02:10:23;2.90;;;2.08;;
64885;SDS011;51514;52.206;5.114;2023-08-12T02:12:48;2.30;;;1.77;;
64885;SDS011;51514;52.206;5.114;2023-08-12T02:15:13;2.25;;;1.73;;
64885;SDS011;51514;52.206;5.114;2023-08-12T02:17:39;3.08;;;1.80;;
64885;SDS011;51514;52.206;5.114;2023-08-12T02:20:04;2.58;;;1.75;;
64885;SDS011;51514;52.206;5.114;2023-08-12T02:22:30;2.97;;;1.80;;
64885;SDS011;51514;52.206;5.114;2023-08-12T02:24:56;2.60;;;1.90;;
64885;SDS011;51514;52.206;5.114;2023-08-12T02:27:21;2.60;;;1.60;;
64885;SDS011;51514;52.206;5.114;2023-08-12T02:29:47;2.88;;;1.40;;
64885;SDS011;51514;52.206;5.114;2023-08-12T02:32:12;2.60;;;1.73;;
64885;SDS011;51514;52.206;5.114;2023-08-12T02:34:37;2.33;;;1.90;;
64885;SDS011;51514;52.206;5.114;2023-08-12T02:37:03;3.17;;;1.88;;
64885;SDS011;51514;52.206;5.114;2023-08-12T02:39:28;2.80;;;2.00;;
64885;SDS011;51514;52.206;5.114;2023-08-12T02:41:54;2.58;;;1.80;;
64885;SDS011;51514;52.206;5.114;2023-08-12T02:44:19;2.08;;;1.60;;
64885;SDS011;51514;52.206;5.114;2023-08-12T02:46:44;1.73;;;1.55;;
64885;SDS011;51514;52.206;5.114;2023-08-12T02:49:10;2.75;;;1.73;;
64885;SDS011;51514;52.206;5.114;2023-08-12T02:51:35;2.40;;;1.63;;
64885;SDS011;51514;52.206;5.114;2023-08-12T02:54:00;2.42;;;1.40;;
64885;SDS011;51514;52.206;5.114;2023-08-12T02:56:26;3.28;;;1.92;;
64885;SDS011;51514;52.206;5.114;2023-08-12T02:58:51;2.35;;;1.50;;
64885;SDS011;51514;52.206;5.114;2023-08-12T03:01:17;2.78;;;1.75;;
64885;SDS011;51514;52.206;5.114;2023-08-12T03:03:43;1.55;;;1.45;;
64885;SDS011;51514;52.206;5.114;2023-08-12T03:06:09;2.42;;;1.75;;
64885;SDS011;51514;52.206;5.114;2023-08-12T03:08:34;2.30;;;1.55;;
64885;SDS011;51514;52.206;5.114;2023-08-12T03:11:00;2.78;;;1.67;;
64885;SDS011;51514;52.206;5.114;2023-08-12T03:13:27;2.60;;;1.48;;
64885;SDS011;51514;52.206;5.114;2023-08-12T03:15:52;2.83;;;1.70;;
64885;SDS011;51514;52.206;5.114;2023-08-12T03:18:18;1.40;;;1.30;;
64885;SDS011;51514;52.206;5.114;2023-08-12T03:20:43;2.97;;;1.77;;
64885;SDS011;51514;52.206;5.114;2023-08-12T03:23:09;3.65;;;2.30;;
64885;SDS011;51514;52.206;5.114;2023-08-12T03:25:34;2.50;;;1.70;;
64885;SDS011;51514;52.206;5.114;2023-08-12T03:27:59;1.50;;;1.40;;
64885;SDS011;51514;52.206;5.114;2023-08-12T03:30:25;2.03;;;1.63;;
64885;SDS011;51514;52.206;5.114;2023-08-12T03:32:51;3.65;;;2.00;;
64885;SDS011;51514;52.206;5.114;2023-08-12T03:35:17;1.73;;;1.48;;
64885;SDS011;51514;52.206;5.114;2023-08-12T03:37:43;2.20;;;1.77;;
64885;SDS011;51514;52.206;5.114;2023-08-12T03:40:08;3.90;;;1.92;;
64885;SDS011;51514;52.206;5.114;2023-08-12T03:42:34;2.45;;;1.80;;
64885;SDS011;51514;52.206;5.114;2023-08-12T03:44:59;3.33;;;1.90;;
64885;SDS011;51514;52.206;5.114;2023-08-12T03:47:24;3.60;;;1.92;;
64885;SDS011;51514;52.206;5.114;2023-08-12T03:49:50;2.45;;;1.75;;
64885;SDS011;51514;52.206;5.114;2023-08-12T03:52:16;4.60;;;1.67;;
64885;SDS011;51514;52.206;5.114;2023-08-12T03:54:41;3.00;;;1.77;;
64885;SDS011;51514;52.206;5.114;2023-08-12T03:57:06;2.97;;;2.00;;
64885;SDS011;51514;52.206;5.114;2023-08-12T03:59:32;2.42;;;1.95;;
64885;SDS011;51514;52.206;5.114;2023-08-12T04:01:57;2.85;;;1.90;;
64885;SDS011;51514;52.206;5.114;2023-08-12T04:04:23;1.67;;;1.40;;
64885;SDS011;51514;52.206;5.114;2023-08-12T04:06:48;2.28;;;1.65;;
64885;SDS011;51514;52.206;5.114;2023-08-12T04:09:16;2.10;;;1.58;;
64885;SDS011;51514;52.206;5.114;2023-08-12T04:11:42;2.88;;;1.75;;
64885;SDS011;51514;52.206;5.114;2023-08-12T04:14:08;2.38;;;1.58;;
64885;SDS011;51514;52.206;5.114;2023-08-12T04:16:33;2.63;;;1.63;;
64885;SDS011;51514;52.206;5.114;2023-08-12T04:18:58;4.93;;;1.52;;
64885;SDS011;51514;52.206;5.114;2023-08-12T04:21:24;1.67;;;1.38;;
64885;SDS011;51514;52.206;5.114;2023-08-12T04:23:49;2.85;;;1.45;;
64885;SDS011;51514;52.206;5.114;2023-08-12T04:26:14;1.98;;;1.67;;
64885;SDS011;51514;52.206;5.114;2023-08-12T04:28:40;2.42;;;1.67;;
64885;SDS011;51514;52.206;5.114;2023-08-12T04:31:06;2.03;;;1.75;;
64885;SDS011;51514;52.206;5.114;2023-08-12T04:33:33;2.45;;;1.52;;
64885;SDS011;51514;52.206;5.114;2023-08-12T04:35:58;1.90;;;1.50;;
64885;SDS011;51514;52.206;5.114;2023-08-12T04:38:23;3.10;;;1.73;;
64885;SDS011;51514;52.206;5.114;2023-08-12T04:40:49;1.77;;;1.40;;
64885;SDS011;51514;52.206;5.114;2023-08-12T04:43:14;2.38;;;1.70;;
64885;SDS011;51514;52.206;5.114;2023-08-12T04:45:40;2.25;;;1.50;;
64885;SDS011;51514;52.206;5.114;2023-08-12T04:48:05;2.47;;;1.70;;
64885;SDS011;51514;52.206;5.114;2023-08-12T04:50:31;3.63;;;1.88;;
64885;SDS011;51514;52.206;5.114;2023-08-12T04:52:59;2.25;;;1.65;;
64885;SDS011;51514;52.206;5.114;2023-08-12T04:55:25;2.45;;;1.70;;
64885;SDS011;51514;52.206;5.114;2023-08-12T04:57:50;3.30;;;2.00;;
64885;SDS011;51514;52.206;5.114;2023-08-12T05:00:16;2.95;;;1.88;;
64885;SDS011;51514;52.206;5.114;2023-08-12T05:02:42;2.88;;;1.50;;
64885;SDS011;51514;52.206;5.114;2023-08-12T05:05:08;2.35;;;1.70;;
64885;SDS011;51514;52.206;5.114;2023-08-12T05:07:33;2.50;;;2.00;;
64885;SDS011;51514;52.206;5.114;2023-08-12T05:09:59;2.08;;;1.70;;
64885;SDS011;51514;52.206;5.114;2023-08-12T05:12:24;3.22;;;1.60;;
64885;SDS011;51514;52.206;5.114;2023-08-12T05:14:50;1.60;;;1.50;;
64885;SDS011;51514;52.206;5.114;2023-08-12T05:17:15;2.45;;;1.90;;
64885;SDS011;51514;52.206;5.114;2023-08-12T05:19:40;2.38;;;1.95;;
64885;SDS011;51514;52.206;5.114;2023-08-12T05:22:06;2.28;;;1.60;;
64885;SDS011;51514;52.206;5.114;2023-08-12T05:24:31;2.47;;;1.88;;
64885;SDS011;51514;52.206;5.114;2023-08-12T05:26:56;2.83;;;2.00;;
64885;SDS011;51514;52.206;5.114;2023-08-12T05:29:22;2.30;;;1.83;;
64885;SDS011;51514;52.206;5.114;2023-08-12T05:31:47;2.17;;;1.58;;
64885;SDS011;51514;52.206;5.114;2023-08-12T05:34:13;3.40;;;1.70;;
64885;SDS011;51514;52.206;5.114;2023-08-12T05:36:38;2.30;;;1.83;;
64885;SDS011;51514;52.206;5.114;2023-08-12T05:39:03;3.10;;;1.67;;
64885;SDS011;51514;52.206;5.114;2023-08-12T05:41:29;2.28;;;1.88;;
64885;SDS011;51514;52.206;5.114;2023-08-12T05:43:54;2.13;;;1.73;;
64885;SDS011;51514;52.206;5.114;2023-08-12T05:46:20;3.00;;;1.77;;
64885;SDS011;51514;52.206;5.114;2023-08-12T05:48:45;2.35;;;1.63;;
64885;SDS011;51514;52.206;5.114;2023-08-12T05:51:11;2.83;;;1.55;;
64885;SDS011;51514;52.206;5.114;2023-08-12T05:53:36;2.10;;;1.73;;
64885;SDS011;51514;52.206;5.114;2023-08-12T05:56:02;3.38;;;1.98;;
64885;SDS011;51514;52.206;5.114;2023-08-12T05:58:27;3.97;;;1.80;;
64885;SDS011;51514;52.206;5.114;2023-08-12T06:00:53;3.47;;;1.80;;
64885;SDS011;51514;52.206;5.114;2023-08-12T06:03:18;2.83;;;1.90;;
64885;SDS011;51514;52.206;5.114;2023-08-12T06:05:44;1.77;;;1.52;;
64885;SDS011;51514;52.206;5.114;2023-08-12T06:08:11;1.88;;;1.50;;
64885;SDS011;51514;52.206;5.114;2023-08-12T06:10:37;2.35;;;1.65;;
64885;SDS011;51514;52.206;5.114;2023-08-12T06:13:02;3.28;;;2.17;;
64885;SDS011;51514;52.206;5.114;2023-08-12T06:15:28;3.97;;;2.08;;
64885;SDS011;51514;52.206;5.114;2023-08-12T06:17:53;3.85;;;2.17;;
64885;SDS011;51514;52.206;5.114;2023-08-12T06:20:18;3.20;;;2.08;;
64885;SDS011;51514;52.206;5.114;2023-08-12T06:22:44;4.43;;;2.28;;
64885;SDS011;51514;52.206;5.114;2023-08-12T06:25:09;3.30;;;1.90;;
64885;SDS011;51514;52.206;5.114;2023-08-12T06:27:35;3.28;;;2.20;;
64885;SDS011;51514;52.206;5.114;2023-08-12T06:30:00;4.57;;;2.00;;
64885;SDS011;51514;52.206;5.114;2023-08-12T06:32:25;3.75;;;2.10;;
64885;SDS011;51514;52.206;5.114;2023-08-12T06:34:51;3.35;;;2.17;;
64885;SDS011;51514;52.206;5.114;2023-08-12T06:37:16;2.80;;;1.95;;
64885;SDS011;51514;52.206;5.114;2023-08-12T06:39:42;2.33;;;1.92;;
64885;SDS011;51514;52.206;5.114;2023-08-12T06:42:07;5.05;;;2.45;;
64885;SDS011;51514;52.206;5.114;2023-08-12T06:44:32;2.80;;;1.98;;
64885;SDS011;51514;52.206;5.114;2023-08-12T06:46:57;2.55;;;1.98;;
64885;SDS011;51514;52.206;5.114;2023-08-12T06:49:23;3.17;;;1.85;;
64885;SDS011;51514;52.206;5.114;2023-08-12T06:51:48;2.42;;;2.03;;
64885;SDS011;51514;52.206;5.114;2023-08-12T06:54:14;2.40;;;2.10;;
64885;SDS011;51514;52.206;5.114;2023-08-12T06:56:39;5.00;;;2.33;;
64885;SDS011;51514;52.206;5.114;2023-08-12T06:59:04;4.20;;;2.33;;
64885;SDS011;51514;52.206;5.114;2023-08-12T07:01:30;4.75;;;2.47;;
64885;SDS011;51514;52.206;5.114;2023-08-12T07:03:55;2.65;;;2.17;;
64885;SDS011;51514;52.206;5.114;2023-08-12T07:06:21;4.30;;;2.28;;
64885;SDS011;51514;52.206;5.114;2023-08-12T07:08:47;2.60;;;2.00;;
64885;SDS011;51514;52.206;5.114;2023-08-12T07:11:12;3.97;;;2.25;;
64885;SDS011;51514;52.206;5.114;2023-08-12T07:13:38;2.63;;;2.17;;
64885;SDS011;51514;52.206;5.114;2023-08-12T07:16:03;3.90;;;2.17;;
64885;SDS011;51514;52.206;5.114;2023-08-12T07:18:29;2.55;;;2.03;;
64885;SDS011;51514;52.206;5.114;2023-08-12T07:20:54;3.22;;;1.88;;
64885;SDS011;51514;52.206;5.114;2023-08-12T07:23:20;2.67;;;2.05;;
64885;SDS011;51514;52.206;5.114;2023-08-12T07:25:46;2.67;;;2.13;;
64885;SDS011;51514;52.206;5.114;2023-08-12T07:28:11;2.33;;;1.98;;
64885;SDS011;51514;52.206;5.114;2023-08-12T07:30:37;4.40;;;2.22;;
64885;SDS011;51514;52.206;5.114;2023-08-12T07:33:03;4.95;;;2.40;;
64885;SDS011;51514;52.206;5.114;2023-08-12T07:35:29;3.30;;;2.25;;
64885;SDS011;51514;52.206;5.114;2023-08-12T07:37:54;4.28;;;2.00;;
64885;SDS011;51514;52.206;5.114;2023-08-12T07:40:20;3.75;;;2.03;;
64885;SDS011;51514;52.206;5.114;2023-08-12T07:42:45;3.72;;;1.90;;
64885;SDS011;51514;52.206;5.114;2023-08-12T07:45:10;3.13;;;2.10;;
64885;SDS011;51514;52.206;5.114;2023-08-12T07:47:36;2.30;;;1.77;;
64885;SDS011;51514;52.206;5.114;2023-08-12T07:50:01;3.25;;;2.15;;
64885;SDS011;51514;52.206;5.114;2023-08-12T07:52:27;3.65;;;2.20;;
64885;SDS011;51514;52.206;5.114;2023-08-12T07:54:52;4.03;;;2.33;;
64885;SDS011;51514;52.206;5.114;2023-08-12T07:57:17;3.92;;;2.55;;
64885;SDS011;51514;52.206;5.114;2023-08-12T07:59:45;3.70;;;2.00;;
64885;SDS011;51514;52.206;5.114;2023-08-12T08:02:10;2.83;;;2.17;;
64885;SDS011;51514;52.206;5.114;2023-08-12T08:04:36;6.10;;;2.50;;
64885;SDS011;51514;52.206;5.114;2023-08-12T08:07:01;2.90;;;2.00;;
64885;SDS011;51514;52.206;5.114;2023-08-12T08:09:26;4.82;;;2.05;;
64885;SDS011;51514;52.206;5.114;2023-08-12T08:11:52;2.70;;;2.00;;
64885;SDS011;51514;52.206;5.114;2023-08-12T08:14:17;3.28;;;2.55;;
64885;SDS011;51514;52.206;5.114;2023-08-12T08:16:43;3.22;;;2.17;;
64885;SDS011;51514;52.206;5.114;2023-08-12T08:19:08;5.07;;;2.40;;
64885;SDS011;51514;52.206;5.114;2023-08-12T08:21:35;3.33;;;2.00;;
64885;SDS011;51514;52.206;5.114;2023-08-12T08:24:00;2.80;;;1.90;;
64885;SDS011;51514;52.206;5.114;2023-08-12T08:26:26;4.15;;;2.00;;
64885;SDS011;51514;52.206;5.114;2023-08-12T08:28:51;5.70;;;2.45;;
64885;SDS011;51514;52.206;5.114;2023-08-12T08:31:17;4.13;;;2.00;;
64885;SDS011;51514;52.206;5.114;2023-08-12T08:33:42;3.05;;;1.88;;
64885;SDS011;51514;52.206;5.114;2023-08-12T08:36:08;3.40;;;2.00;;
64885;SDS011;51514;52.206;5.114;2023-08-12T08:38:33;3.75;;;2.33;;
64885;SDS011;51514;52.206;5.114;2023-08-12T08:40:58;3.00;;;2.15;;
64885;SDS011;51514;52.206;5.114;2023-08-12T08:43:26;3.47;;;2.15;;
64885;SDS011;51514;52.206;5.114;2023-08-12T08:45:53;3.33;;;2.17;;
64885;SDS011;51514;52.206;5.114;2023-08-12T08:48:22;4.55;;;2.20;;
64885;SDS011;51514;52.206;5.114;2023-08-12T08:50:50;2.67;;;1.80;;
64885;SDS011;51514;52.206;5.114;2023-08-12T08:53:17;4.85;;;2.70;;
64885;SDS011;51514;52.206;5.114;2023-08-12T08:55:43;3.45;;;1.95;;
64885;SDS011;51514;52.206;5.114;2023-08-12T08:58:10;3.30;;;1.95;;
64885;SDS011;51514;52.206;5.114;2023-08-12T09:00:36;4.82;;;2.30;;
64885;SDS011;51514;52.206;5.114;2023-08-12T09:03:04;3.30;;;2.03;;
64885;SDS011;51514;52.206;5.114;2023-08-12T09:05:31;2.95;;;2.17;;
64885;SDS011;51514;52.206;5.114;2023-08-12T09:07:59;4.30;;;2.13;;
64885;SDS011;51514;52.206;5.114;2023-08-12T09:10:26;5.68;;;2.63;;
64885;SDS011;51514;52.206;5.114;2023-08-12T09:12:52;3.97;;;2.30;;
64885;SDS011;51514;52.206;5.114;2023-08-12T09:15:20;3.92;;;2.30;;
64885;SDS011;51514;52.206;5.114;2023-08-12T09:17:45;3.47;;;2.38;;
64885;SDS011;51514;52.206;5.114;2023-08-12T09:20:11;5.63;;;2.15;;
64885;SDS011;51514;52.206;5.114;2023-08-12T09:22:37;3.40;;;2.15;;
64885;SDS011;51514;52.206;5.114;2023-08-12T09:25:03;4.78;;;2.05;;
64885;SDS011;51514;52.206;5.114;2023-08-12T09:27:32;3.10;;;2.13;;
64885;SDS011;51514;52.206;5.114;2023-08-12T09:29:57;3.47;;;2.07;;
64885;SDS011;51514;52.206;5.114;2023-08-12T09:32:23;3.15;;;2.10;;
64885;SDS011;51514;52.206;5.114;2023-08-12T09:34:50;4.70;;;2.22;;
64885;SDS011;51514;52.206;5.114;2023-08-12T09:37:17;4.07;;;2.00;;
64885;SDS011;51514;52.206;5.114;2023-08-12T09:39:43;3.15;;;1.95;;
64885;SDS011;51514;52.206;5.114;2023-08-12T09:42:10;3.83;;;2.22;;
64885;SDS011;51514;52.206;5.114;2023-08-12T09:44:36;3.90;;;2.35;;
64885;SDS011;51514;52.206;5.114;2023-08-12T09:47:05;3.65;;;1.92;;
64885;SDS011;51514;52.206;5.114;2023-08-12T09:49:31;2.90;;;1.95;;
64885;SDS011;51514;52.206;5.114;2023-08-12T09:51:57;2.92;;;1.75;;
64885;SDS011;51514;52.206;5.114;2023-08-12T09:54:22;3.08;;;1.83;;
64885;SDS011;51514;52.206;5.114;2023-08-12T09:56:52;2.53;;;1.55;;
64885;SDS011;51514;52.206;5.114;2023-08-12T09:59:22;4.13;;;2.08;;
64885;SDS011;51514;52.206;5.114;2023-08-12T10:01:49;2.00;;;1.67;;
64885;SDS011;51514;52.206;5.114;2023-08-12T10:04:17;3.75;;;2.00;;
64885;SDS011;51514;52.206;5.114;2023-08-12T10:06:43;5.57;;;1.85;;
64885;SDS011;51514;52.206;5.114;2023-08-12T10:09:09;1.75;;;1.63;;
64885;SDS011;51514;52.206;5.114;2023-08-12T10:11:36;4.45;;;2.08;;
64885;SDS011;51514;52.206;5.114;2023-08-12T10:14:03;3.05;;;1.50;;
64885;SDS011;51514;52.206;5.114;2023-08-12T10:16:29;2.67;;;2.00;;
64885;SDS011;51514;52.206;5.114;2023-08-12T10:18:55;2.33;;;1.83;;
64885;SDS011;51514;52.206;5.114;2023-08-12T10:21:23;2.53;;;1.52;;
64885;SDS011;51514;52.206;5.114;2023-08-12T10:23:53;3.15;;;1.70;;
64885;SDS011;51514;52.206;5.114;2023-08-12T10:26:18;2.60;;;1.55;;
64885;SDS011;51514;52.206;5.114;2023-08-12T10:28:44;3.20;;;1.70;;
64885;SDS011;51514;52.206;5.114;2023-08-12T10:31:13;2.30;;;1.63;;
64885;SDS011;51514;52.206;5.114;2023-08-12T10:33:39;4.47;;;2.55;;
64885;SDS011;51514;52.206;5.114;2023-08-12T10:36:05;3.05;;;1.90;;
64885;SDS011;51514;52.206;5.114;2023-08-12T10:38:31;3.58;;;2.05;;
64885;SDS011;51514;52.206;5.114;2023-08-12T10:44:00;2.33;;;1.50;;
64885;SDS011;51514;52.206;5.114;2023-08-12T10:46:30;3.10;;;1.42;;
64885;SDS011;51514;52.206;5.114;2023-08-12T10:49:03;4.97;;;1.80;;
64885;SDS011;51514;52.206;5.114;2023-08-12T10:51:40;2.90;;;1.88;;
64885;SDS011;51514;52.206;5.114;2023-08-12T10:54:27;2.67;;;1.75;;
64885;SDS011;51514;52.206;5.114;2023-08-12T11:04:55;2.58;;;1.65;;
64885;SDS011;51514;52.206;5.114;2023-08-12T11:07:42;3.67;;;1.70;;
64885;SDS011;51514;52.206;5.114;2023-08-12T11:12:38;2.30;;;1.30;;
64885;SDS011;51514;52.206;5.114;2023-08-12T11:15:05;2.90;;;1.80;;
64885;SDS011;51514;52.206;5.114;2023-08-12T11:17:35;3.15;;;1.88;;
64885;SDS011;51514;52.206;5.114;2023-08-12T11:20:02;3.53;;;1.70;;
64885;SDS011;51514;52.206;5.114;2023-08-12T11:22:30;2.15;;;1.48;;
64885;SDS011;51514;52.206;5.114;2023-08-12T11:24:57;4.07;;;1.80;;
64885;SDS011;51514;52.206;5.114;2023-08-12T11:27:23;4.32;;;1.88;;
64885;SDS011;51514;52.206;5.114;2023-08-12T11:29:51;4.57;;;1.70;;
64885;SDS011;51514;52.206;5.114;2023-08-12T11:32:17;4.60;;;2.13;;
64885;SDS011;51514;52.206;5.114;2023-08-12T11:34:43;4.35;;;2.00;;
64885;SDS011;51514;52.206;5.114;2023-08-12T11:37:09;4.28;;;1.60;;
64885;SDS011;51514;52.206;5.114;2023-08-12T11:39:34;5.05;;;1.73;;
64885;SDS011;51514;52.206;5.114;2023-08-12T11:41:59;5.72;;;2.13;;
64885;SDS011;51514;52.206;5.114;2023-08-12T11:44:25;4.65;;;1.90;;
64885;SDS011;51514;52.206;5.114;2023-08-12T11:46:50;6.25;;;2.20;;
64885;SDS011;51514;52.206;5.114;2023-08-12T11:49:16;4.22;;;1.85;;
64885;SDS011;51514;52.206;5.114;2023-08-12T11:51:42;6.00;;;2.28;;
64885;SDS011;51514;52.206;5.114;2023-08-12T11:54:10;4.72;;;2.08;;
64885;SDS011;51514;52.206;5.114;2023-08-12T11:56:35;5.72;;;2.60;;
64885;SDS011;51514;52.206;5.114;2023-08-12T11:59:01;2.30;;;1.60;;
64885;SDS011;51514;52.206;5.114;2023-08-12T12:01:27;7.85;;;2.53;;
64885;SDS011;51514;52.206;5.114;2023-08-12T12:03:54;4.43;;;2.03;;
64885;SDS011;51514;52.206;5.114;2023-08-12T12:06:29;6.53;;;2.10;;
64885;SDS011;51514;52.206;5.114;2023-08-12T12:08:55;4.28;;;1.67;;
64885;SDS011;51514;52.206;5.114;2023-08-12T12:11:20;9.57;;;2.53;;
64885;SDS011;51514;52.206;5.114;2023-08-12T12:13:46;6.10;;;1.88;;
64885;SDS011;51514;52.206;5.114;2023-08-12T12:16:14;4.73;;;2.10;;
64885;SDS011;51514;52.206;5.114;2023-08-12T12:18:40;5.70;;;2.03;;
64885;SDS011;51514;52.206;5.114;2023-08-12T12:21:05;4.47;;;2.10;;
64885;SDS011;51514;52.206;5.114;2023-08-12T12:23:31;4.78;;;1.85;;
64885;SDS011;51514;52.206;5.114;2023-08-12T12:26:00;4.25;;;1.80;;
64885;SDS011;51514;52.206;5.114;2023-08-12T12:28:27;5.03;;;2.10;;
64885;SDS011;51514;52.206;5.114;2023-08-12T12:30:52;5.10;;;2.22;;
64885;SDS011;51514;52.206;5.114;2023-08-12T12:33:18;6.10;;;2.20;;
64885;SDS011;51514;52.206;5.114;2023-08-12T12:35:43;5.07;;;2.10;;
64885;SDS011;51514;52.206;5.114;2023-08-12T12:38:09;8.13;;;2.22;;
64885;SDS011;51514;52.206;5.114;2023-08-12T12:40:34;9.18;;;2.17;;
64885;SDS011;51514;52.206;5.114;2023-08-12T12:43:00;3.92;;;2.00;;
64885;SDS011;51514;52.206;5.114;2023-08-12T12:45:25;7.13;;;2.42;;
64885;SDS011;51514;52.206;5.114;2023-08-12T12:47:50;5.50;;;2.05;;
64885;SDS011;51514;52.206;5.114;2023-08-12T12:50:16;4.82;;;2.08;;
64885;SDS011;51514;52.206;5.114;2023-08-12T12:52:42;4.63;;;2.05;;
64885;SDS011;51514;52.206;5.114;2023-08-12T12:55:07;5.40;;;2.40;;
64885;SDS011;51514;52.206;5.114;2023-08-12T12:57:33;6.25;;;2.20;;
64885;SDS011;51514;52.206;5.114;2023-08-12T12:59:59;10.05;;;2.80;;
64885;SDS011;51514;52.206;5.114;2023-08-12T13:02:25;5.50;;;2.17;;
64885;SDS011;51514;52.206;5.114;2023-08-12T13:04:50;6.43;;;2.00;;
64885;SDS011;51514;52.206;5.114;2023-08-12T13:07:16;8.80;;;2.47;;
64885;SDS011;51514;52.206;5.114;2023-08-12T13:09:41;4.88;;;1.90;;
64885;SDS011;51514;52.206;5.114;2023-08-12T13:12:06;5.40;;;2.30;;
64885;SDS011;51514;52.206;5.114;2023-08-12T13:14:32;6.00;;;2.38;;
64885;SDS011;51514;52.206;5.114;2023-08-12T13:16:57;6.25;;;2.22;;
64885;SDS011;51514;52.206;5.114;2023-08-12T13:19:22;8.55;;;2.50;;
64885;SDS011;51514;52.206;5.114;2023-08-12T13:21:48;7.75;;;2.10;;
64885;SDS011;51514;52.206;5.114;2023-08-12T13:24:13;7.75;;;2.15;;
64885;SDS011;51514;52.206;5.114;2023-08-12T13:26:40;4.65;;;2.15;;
64885;SDS011;51514;52.206;5.114;2023-08-12T13:29:05;6.63;;;2.30;;
64885;SDS011;51514;52.206;5.114;2023-08-12T13:31:30;6.72;;;2.35;;
64885;SDS011;51514;52.206;5.114;2023-08-12T13:33:56;8.52;;;2.30;;
64885;SDS011;51514;52.206;5.114;2023-08-12T13:36:21;7.93;;;2.33;;
64885;SDS011;51514;52.206;5.114;2023-08-12T13:38:47;6.30;;;3.47;;
64885;SDS011;51514;52.206;5.114;2023-08-12T13:41:13;4.28;;;2.00;;
64885;SDS011;51514;52.206;5.114;2023-08-12T13:43:38;5.68;;;1.98;;
64885;SDS011;51514;52.206;5.114;2023-08-12T13:46:04;5.75;;;2.50;;
64885;SDS011;51514;52.206;5.114;2023-08-12T13:48:29;4.47;;;1.90;;
64885;SDS011;51514;52.206;5.114;2023-08-12T13:50:56;6.28;;;2.42;;
64885;SDS011;51514;52.206;5.114;2023-08-12T13:53:21;7.28;;;2.47;;
64885;SDS011;51514;52.206;5.114;2023-08-12T13:55:49;8.23;;;2.88;;
64885;SDS011;51514;52.206;5.114;2023-08-12T13:58:14;7.82;;;2.55;;
64885;SDS011;51514;52.206;5.114;2023-08-12T14:00:39;10.00;;;2.95;;
64885;SDS011;51514;52.206;5.114;2023-08-12T14:03:05;5.72;;;3.33;;
64885;SDS011;51514;52.206;5.114;2023-08-12T14:05:31;5.38;;;2.45;;
64885;SDS011;51514;52.206;5.114;2023-08-12T14:07:57;7.32;;;2.50;;
64885;SDS011;51514;52.206;5.114;2023-08-12T14:10:22;7.05;;;2.72;;
64885;SDS011;51514;52.206;5.114;2023-08-12T14:12:47;5.65;;;2.30;;
64885;SDS011;51514;52.206;5.114;2023-08-12T14:15:14;9.63;;;2.35;;
64885;SDS011;51514;52.206;5.114;2023-08-12T14:17:39;6.78;;;2.40;;
64885;SDS011;51514;52.206;5.114;2023-08-12T14:20:05;5.28;;;2.38;;
64885;SDS011;51514;52.206;5.114;2023-08-12T14:22:33;8.47;;;2.50;;
64885;SDS011;51514;52.206;5.114;2023-08-12T14:24:59;7.47;;;2.45;;
64885;SDS011;51514;52.206;5.114;2023-08-12T14:27:24;9.02;;;2.50;;
64885;SDS011;51514;52.206;5.114;2023-08-12T14:29:49;5.47;;;2.20;;
64885;SDS011;51514;52.206;5.114;2023-08-12T14:32:15;5.72;;;2.63;;
64885;SDS011;51514;52.206;5.114;2023-08-12T14:34:41;10.88;;;3.03;;
64885;SDS011;51514;52.206;5.114;2023-08-12T14:37:10;5.90;;;2.17;;
64885;SDS011;51514;52.206;5.114;2023-08-12T14:39:36;7.15;;;2.72;;
64885;SDS011;51514;52.206;5.114;2023-08-12T14:42:01;5.68;;;2.53;;
64885;SDS011;51514;52.206;5.114;2023-08-12T14:44:28;5.63;;;2.67;;
64885;SDS011;51514;52.206;5.114;2023-08-12T14:46:55;6.90;;;2.50;;
64885;SDS011;51514;52.206;5.114;2023-08-12T14:49:21;8.18;;;3.00;;
64885;SDS011;51514;52.206;5.114;2023-08-12T14:51:46;7.78;;;2.33;;
64885;SDS011;51514;52.206;5.114;2023-08-12T14:54:11;10.55;;;2.72;;
64885;SDS011;51514;52.206;5.114;2023-08-12T14:56:37;7.90;;;2.60;;